Time;durP1;ratioP1;P1;durP2;ratioP2;P2;SDS_P1;SDS_P2;PMS_P1;PMS_P2;Temp;Humidity;BMP_temperature;BMP_pressure;BME280_temperature;BME280_humidity;BME280_pressure;Samples;Min_cycle;Max_cycle;Signal;HPM_P1;HPM_P2
2023/06/08 00:00:50;;;;;;;;;;;;;;;-140.72;100.00;52510.59;6247430;23;20320;-71
2023/06/08 00:03:17;;;;;;;;;;;;;;;-140.72;100.00;52496.38;6245396;23;19916;-71
2023/06/08 00:05:46;;;;;;;;;;;;;;;-140.72;100.00;52520.72;6218003;23;19974;-71
2023/06/08 00:08:12;;;;;;;;;;;;;;;-140.72;100.00;52492.31;6245989;23;19915;-71
2023/06/08 00:10:40;;;;;;;;;;;;;;;-140.72;100.00;52516.66;6245291;23;20339;-71
2023/06/08 00:13:05;;;;;;;;;;;;;;;-140.72;100.00;52492.31;6244816;23;19918;-71
2023/06/08 00:15:32;;;;;;;;;;;;;;;-140.72;100.00;52518.69;6245570;23;19994;-71
2023/06/08 00:17:58;;;;;;;;;;;;;;;-140.72;100.00;52496.38;6218682;23;20219;-71
2023/06/08 00:20:24;;;;;;;;;;;;;;;-140.72;100.00;52496.38;6244782;23;19922;-71
2023/06/08 00:22:51;;;;;;;;;;;;;;;-140.72;100.00;52510.59;6245219;23;19941;-71
2023/06/08 00:25:17;;;;;;;;;;;;;;;-140.72;100.00;52526.81;6246651;23;19996;-72
2023/06/08 00:27:42;;;;;;;;;;;;;;;-140.72;100.00;52504.50;6245963;23;19919;-71
2023/06/08 00:30:08;;;;;;;;;;;;;;;-140.72;100.00;52478.13;6246077;23;19993;-71
2023/06/08 00:32:33;;;;;;;;;;;;;;;-140.72;100.00;52508.56;6246364;23;20004;-71
2023/06/08 00:34:59;;;;;;;;;;;;;;;-140.72;100.00;52526.81;6245862;23;19921;-71
2023/06/08 00:37:24;;;;;;;;;;;;;;;-140.72;100.00;52565.38;6218475;23;19912;-71
2023/06/08 00:39:49;;;;;;;;;;;;;;;-140.72;100.00;52496.38;6245604;23;19969;-71
2023/06/08 00:42:15;;;;;;;;;;;;;;;-140.72;100.00;52510.59;6218805;23;19915;-71
2023/06/08 00:44:40;;;;;;;;;;;;;;;-140.72;100.00;52571.47;6218665;23;19916;-69
2023/06/08 00:47:05;;;;;;;;;;;;;;;-140.72;100.00;52510.59;6245549;23;19922;-72
2023/06/08 00:49:32;;;;;;;;;;;;;;;-140.72;100.00;52480.16;6245592;23;19911;-71
2023/06/08 00:51:57;;;;;;;;;;;;;;;-140.72;100.00;52492.31;6245734;23;19919;-70
2023/06/08 00:54:24;;;;;;;;;;;;;;;-140.72;100.00;52508.56;6246035;23;20239;-72
2023/06/08 00:56:50;;;;;;;;;;;;;;;-140.72;100.00;52514.63;6218455;23;20307;-71
2023/06/08 00:59:15;;;;;;;;;;;;;;;-140.72;100.00;52539.00;6247114;23;19911;-72
2023/06/08 01:01:41;;;;;;;;;;;;;;;-140.72;100.00;52514.63;6246384;23;20002;-72
2023/06/08 01:04:06;;;;;;;;;;;;;;;-140.72;100.00;52490.28;6245761;23;19916;-71
2023/06/08 01:06:32;;;;;;;;;;;;;;;-140.72;100.00;52516.66;6244945;23;20015;-72
2023/06/08 01:08:57;;;;;;;;;;;;;;;-140.72;100.00;52528.84;6247838;23;19916;-71
2023/06/08 01:11:32;;;;;;;;;;;;;;;-140.72;100.00;52514.63;6247113;23;19918;-71
2023/06/08 01:14:16;;;;;;;;;;;;;;;-140.72;100.00;52534.94;6246950;23;19920;-72
2023/06/08 01:16:44;;;;;;;;;;;;;;;-140.72;100.00;52536.97;6218585;23;19912;-71
2023/06/08 01:19:17;;;;;;;;;;;;;;;-140.72;100.00;52516.66;6246975;23;20292;-72
2023/06/08 01:22:10;;;;;;;;;;;;;;;-140.72;100.00;52500.44;6246001;23;19916;-71
2023/06/08 01:24:36;;;;;;;;;;;;;;;-140.72;100.00;52528.84;6245353;23;20229;-71
2023/06/08 01:27:06;;;;;;;;;;;;;;;-140.72;100.00;52496.38;6218340;23;19990;-71
2023/06/08 01:29:33;;;;;;;;;;;;;;;-140.72;100.00;52561.31;6245598;23;19964;-72
2023/06/08 01:31:58;;;;;;;;;;;;;;;-140.72;100.00;52557.25;6218516;23;20049;-72
2023/06/08 01:34:23;;;;;;;;;;;;;;;-140.72;100.00;52561.31;6218789;23;20331;-71
2023/06/08 01:36:54;;;;;;;;;;;;;;;-140.72;100.00;52516.66;6245471;23;19912;-71
2023/06/08 01:39:40;;;;;;;;;;;;;;;-140.72;100.00;52528.84;6245496;23;20304;-72
2023/06/08 01:42:07;;;;;;;;;;;;;;;-140.72;100.00;52530.88;6219424;23;19990;-72
2023/06/08 01:44:37;;;;;;;;;;;;;;;-140.72;100.00;52510.59;6245827;22;19926;-72
2023/06/08 01:47:04;;;;;;;;;;;;;;;-140.72;100.00;52534.94;6218262;23;19923;-72
2023/06/08 01:49:30;;;;;;;;;;;;;;;-140.72;100.00;52549.13;6245374;23;19923;-72
2023/06/08 01:51:56;;;;;;;;;;;;;;;-140.72;100.00;52549.13;6218752;23;19911;-72
2023/06/08 01:54:21;;;;;;;;;;;;;;;-140.72;100.00;52524.78;6245786;23;19918;-72
2023/06/08 01:56:47;;;;;;;;;;;;;;;-140.72;100.00;52536.97;6245052;23;19911;-72
2023/06/08 01:59:12;;;;;;;;;;;;;;;-140.72;100.00;52559.28;6244655;23;19923;-71
2023/06/08 02:01:37;;;;;;;;;;;;;;;-140.72;100.00;52561.31;6245107;23;19919;-71
2023/06/08 02:04:02;;;;;;;;;;;;;;;-140.72;100.00;52516.66;6244791;23;19938;-72
2023/06/08 02:06:28;;;;;;;;;;;;;;;-140.72;100.00;52543.03;6245023;23;20251;-72
2023/06/08 02:08:53;;;;;;;;;;;;;;;-140.72;100.00;52547.09;6244433;23;19939;-72
2023/06/08 02:11:18;;;;;;;;;;;;;;;-140.72;100.00;52549.13;6245343;23;20304;-72
2023/06/08 02:13:44;;;;;;;;;;;;;;;-140.72;100.00;52557.25;6245279;23;19916;-72
2023/06/08 02:16:10;;;;;;;;;;;;;;;-140.72;100.00;52520.72;6245399;23;19922;-72
2023/06/08 02:18:40;;;;;;;;;;;;;;;-140.72;100.00;52585.66;6218300;23;19916;-71
2023/06/08 02:21:06;;;;;;;;;;;;;;;-140.72;100.00;52518.69;6245993;23;19934;-71
2023/06/08 02:23:31;;;;;;;;;;;;;;;-140.72;100.00;52561.31;6245456;23;19958;-71
2023/06/08 02:25:56;;;;;;;;;;;;;;;-140.72;100.00;52551.16;6218364;23;20296;-70
2023/06/08 02:28:22;;;;;;;;;;;;;;;-140.72;100.00;52569.44;6217829;23;19922;-71
2023/06/08 02:30:47;;;;;;;;;;;;;;;-140.72;100.00;52534.94;6244426;23;19915;-70
2023/06/08 02:33:22;;;;;;;;;;;;;;;-140.72;100.00;52561.31;6243900;23;19915;-70
2023/06/08 02:35:48;;;;;;;;;;;;;;;-140.72;100.00;52551.16;6245068;23;19912;-71
2023/06/08 02:38:13;;;;;;;;;;;;;;;-140.72;100.00;52549.13;6244548;23;19938;-71
2023/06/08 02:40:39;;;;;;;;;;;;;;;-140.72;100.00;52565.38;6244768;23;19919;-71
2023/06/08 02:43:04;;;;;;;;;;;;;;;-140.72;100.00;52510.59;6244359;22;20315;-71
2023/06/08 02:45:30;;;;;;;;;;;;;;;-140.72;100.00;52561.31;6217102;23;20048;-71
2023/06/08 02:47:57;;;;;;;;;;;;;;;-140.72;100.00;52549.13;6244417;23;19957;-71
2023/06/08 02:50:22;;;;;;;;;;;;;;;-140.72;100.00;52541.03;6245608;23;19916;-70
2023/06/08 02:52:48;;;;;;;;;;;;;;;-140.72;100.00;52549.13;6244027;23;19947;-70
2023/06/08 02:55:22;;;;;;;;;;;;;;;-140.72;100.00;52536.97;6245191;23;19919;-70
2023/06/08 02:57:49;;;;;;;;;;;;;;;-140.72;100.00;52518.69;6215804;23;20304;-70
2023/06/08 03:00:14;;;;;;;;;;;;;;;-140.72;100.00;52520.72;6217140;23;19912;-71
2023/06/08 03:02:39;;;;;;;;;;;;;;;-140.72;100.00;52557.25;6217305;23;20400;-71
2023/06/08 03:05:13;;;;;;;;;;;;;;;-140.72;100.00;52514.63;6244071;23;20234;-71
2023/06/08 03:07:40;;;;;;;;;;;;;;;-140.72;100.00;52561.31;6217498;23;19931;-71
2023/06/08 03:10:06;;;;;;;;;;;;;;;-140.72;100.00;52561.31;6217294;23;19924;-71
2023/06/08 03:12:31;;;;;;;;;;;;;;;-140.72;100.00;52561.31;6244811;23;19919;-71
2023/06/08 03:14:56;;;;;;;;;;;;;;;-140.72;100.00;52567.41;6244314;23;19912;-71
2023/06/08 03:17:24;;;;;;;;;;;;;;;-140.72;100.00;52561.31;6243883;23;20053;-71
2023/06/08 03:19:49;;;;;;;;;;;;;;;-140.72;100.00;52593.78;6244886;23;19919;-71
2023/06/08 03:22:20;;;;;;;;;;;;;;;-140.72;100.00;52589.72;6244964;23;19911;-71
2023/06/08 03:24:48;;;;;;;;;;;;;;;-140.72;100.00;52575.50;6244240;23;19919;-71
2023/06/08 03:27:14;;;;;;;;;;;;;;;-140.72;100.00;52585.66;6244641;23;19911;-71
2023/06/08 03:29:39;;;;;;;;;;;;;;;-140.72;100.00;52545.06;6216676;23;19961;-71
2023/06/08 03:32:05;;;;;;;;;;;;;;;-140.72;100.00;52555.22;6244239;23;19994;-71
2023/06/08 03:34:30;;;;;;;;;;;;;;;-140.72;100.00;52573.50;6245279;23;20220;-71
2023/06/08 03:36:56;;;;;;;;;;;;;;;-140.72;100.00;52532.91;6245644;23;20292;-71
2023/06/08 03:39:21;;;;;;;;;;;;;;;-140.72;100.00;52569.44;6245180;23;19938;-71
2023/06/08 03:41:47;;;;;;;;;;;;;;;-140.72;100.00;52557.25;6245011;23;20009;-71
2023/06/08 03:44:12;;;;;;;;;;;;;;;-140.72;100.00;52571.47;6245296;22;19983;-71
2023/06/08 03:46:37;;;;;;;;;;;;;;;-140.72;100.00;52514.63;6246139;23;20290;-71
2023/06/08 03:49:02;;;;;;;;;;;;;;;-140.72;100.00;52545.06;6218437;23;20220;-71
2023/06/08 03:51:27;;;;;;;;;;;;;;;-140.72;100.00;52543.03;6244842;23;19918;-71
2023/06/08 03:53:53;;;;;;;;;;;;;;;-140.72;100.00;52587.69;6217525;23;19912;-71
2023/06/08 03:56:19;;;;;;;;;;;;;;;-140.72;100.00;52581.59;6244861;23;19912;-71
2023/06/08 03:58:44;;;;;;;;;;;;;;;-140.72;100.00;52557.25;6246995;23;19965;-71
2023/06/08 04:01:10;;;;;;;;;;;;;;;-140.72;100.00;52585.66;6247401;23;19919;-71
2023/06/08 04:03:36;;;;;;;;;;;;;;;-140.72;100.00;52557.25;6223416;23;19915;-71
2023/06/08 04:06:01;;;;;;;;;;;;;;;-140.72;100.00;52545.06;6222196;23;19912;-71
2023/06/08 04:08:31;;;;;;;;;;;;;;;-140.72;100.00;52573.50;6247597;23;20320;-71
2023/06/08 04:10:56;;;;;;;;;;;;;;;-140.72;100.00;52561.31;6246919;23;19912;-71
2023/06/08 04:13:21;;;;;;;;;;;;;;;-140.72;100.00;52534.94;6246769;23;19939;-72
2023/06/08 04:15:47;;;;;;;;;;;;;;;-140.72;100.00;52593.78;6219517;23;19911;-74
2023/06/08 04:18:13;;;;;;;;;;;;;;;-140.72;100.00;52571.47;6246250;23;19934;-75
2023/06/08 04:20:38;;;;;;;;;;;;;;;-140.72;100.00;52577.53;6245997;23;20292;-75
2023/06/08 04:23:03;;;;;;;;;;;;;;;-140.72;100.00;52543.03;6246100;23;19981;-72
2023/06/08 04:25:30;;;;;;;;;;;;;;;-140.72;100.00;52581.59;6245624;23;19912;-73
2023/06/08 04:27:56;;;;;;;;;;;;;;;-140.72;100.00;52547.09;6246072;23;19911;-73
2023/06/08 04:30:21;;;;;;;;;;;;;;;-140.72;100.00;52577.53;6245766;23;19982;-73
2023/06/08 04:32:47;;;;;;;;;;;;;;;-140.72;100.00;52557.25;6218890;23;19912;-73
2023/06/08 04:35:12;;;;;;;;;;;;;;;-140.72;100.00;52563.34;6246320;23;19922;-72
2023/06/08 04:37:37;;;;;;;;;;;;;;;-140.72;100.00;52561.31;6246315;23;19911;-73
2023/06/08 04:40:05;;;;;;;;;;;;;;;-140.72;100.00;52547.09;6219700;23;19916;-74
2023/06/08 04:42:33;;;;;;;;;;;;;;;-140.72;100.00;52555.22;6247727;22;19982;-76
2023/06/08 04:44:59;;;;;;;;;;;;;;;-140.72;100.00;52539.00;6219440;23;19970;-73
2023/06/08 04:47:24;;;;;;;;;;;;;;;-140.72;100.00;52549.13;6246324;23;20277;-73
2023/06/08 04:49:51;;;;;;;;;;;;;;;-140.72;100.00;52605.94;6246185;23;19993;-73
2023/06/08 04:52:19;;;;;;;;;;;;;;;-140.72;100.00;52551.16;6246012;23;20678;-73
2023/06/08 04:54:46;;;;;;;;;;;;;;;-140.72;100.00;52567.41;6218762;23;19986;-74
2023/06/08 04:57:15;;;;;;;;;;;;;;;-140.72;100.00;52577.53;6250531;23;19911;-73
2023/06/08 04:59:40;;;;;;;;;;;;;;;-140.72;100.00;52522.75;6224409;23;20544;-73
2023/06/08 05:02:05;;;;;;;;;;;;;;;-140.72;100.00;52541.03;6223437;23;19911;-73
2023/06/08 05:04:30;;;;;;;;;;;;;;;-140.72;100.00;52589.72;6247308;23;19918;-73
2023/06/08 05:06:56;;;;;;;;;;;;;;;-140.72;100.00;52555.22;6246091;23;19990;-75
2023/06/08 05:09:21;;;;;;;;;;;;;;;-140.72;100.00;52589.72;6219438;23;19916;-73
2023/06/08 05:11:46;;;;;;;;;;;;;;;-140.72;100.00;52555.22;6246368;23;19992;-74
2023/06/08 05:14:15;;;;;;;;;;;;;;;-140.72;100.00;52549.13;6219525;23;19919;-75
2023/06/08 05:16:40;;;;;;;;;;;;;;;-140.72;100.00;52520.72;6246107;23;19919;-74
2023/06/08 05:19:07;;;;;;;;;;;;;;;-140.72;100.00;52551.16;6245860;23;20235;-71
2023/06/08 05:21:33;;;;;;;;;;;;;;;-140.72;100.00;52524.78;6245937;23;19911;-72
2023/06/08 05:23:59;;;;;;;;;;;;;;;-140.72;100.00;52543.03;6218511;23;20303;-71
2023/06/08 05:26:25;;;;;;;;;;;;;;;-140.72;100.00;52573.50;6218175;23;19912;-71
2023/06/08 05:28:50;;;;;;;;;;;;;;;-140.72;100.00;52549.13;6218376;23;19919;-72
2023/06/08 05:31:15;;;;;;;;;;;;;;;-140.72;100.00;52526.81;6217759;23;19912;-73
2023/06/08 05:33:47;;;;;;;;;;;;;;;-140.72;100.00;52555.22;6245511;23;19927;-72
2023/06/08 05:36:12;;;;;;;;;;;;;;;-140.72;100.00;52512.59;6244663;23;19920;-72
2023/06/08 05:38:44;;;;;;;;;;;;;;;-140.72;100.00;52539.00;6217700;23;20363;-71
2023/06/08 05:41:09;;;;;;;;;;;;;;;-140.72;100.00;52534.94;6244868;23;20217;-72
2023/06/08 05:43:34;;;;;;;;;;;;;;;-140.72;100.00;52541.03;6244376;22;19918;-72
2023/06/08 05:46:00;;;;;;;;;;;;;;;-140.72;100.00;52504.50;6244840;23;19918;-72
2023/06/08 05:48:25;;;;;;;;;;;;;;;-140.72;100.00;52518.69;6244465;23;19935;-72
2023/06/08 05:50:50;;;;;;;;;;;;;;;-140.72;100.00;52482.16;6217669;23;19918;-71
2023/06/08 05:53:16;;;;;;;;;;;;;;;-140.72;100.00;52496.38;6244492;23;19919;-72
2023/06/08 05:55:41;;;;;;;;;;;;;;;-140.72;100.00;52470.00;6244619;23;19980;-72
2023/06/08 05:58:14;;;;;;;;;;;;;;;-140.72;100.00;52486.22;6217548;23;19936;-72
2023/06/08 06:00:40;;;;;;;;;;;;;;;-140.72;100.00;52480.16;6244555;23;19916;-72
2023/06/08 06:03:05;;;;;;;;;;;;;;;-140.72;100.00;52474.06;6244457;23;19911;-71
2023/06/08 06:06:01;;;;;;;;;;;;;;;-140.72;100.00;52463.91;6244326;23;20287;-72
2023/06/08 06:08:26;;;;;;;;;;;;;;;-140.72;100.00;52451.72;6244423;23;19912;-71
2023/06/08 06:10:52;;;;;;;;;;;;;;;-140.72;100.00;52510.59;6244588;23;19922;-74
2023/06/08 06:13:21;;;;;;;;;;;;;;;-140.72;100.00;52506.53;6244286;23;19911;-71
2023/06/08 06:15:46;;;;;;;;;;;;;;;-140.72;100.00;52492.31;6244084;23;19918;-74
2023/06/08 06:18:11;;;;;;;;;;;;;;;-140.72;100.00;52500.44;6244853;23;19919;-74
2023/06/08 06:20:53;;;;;;;;;;;;;;;-140.72;100.00;52508.56;6247635;23;19934;-74
2023/06/08 06:23:19;;;;;;;;;;;;;;;-140.72;100.00;52488.25;6218535;23;19912;-73
2023/06/08 06:25:44;;;;;;;;;;;;;;;-140.72;100.00;52498.41;6218461;23;19924;-73
2023/06/08 06:28:14;;;;;;;;;;;;;;;-140.72;100.00;52504.50;6218377;23;19962;-75
2023/06/08 06:30:40;;;;;;;;;;;;;;;-140.72;100.00;52510.59;6223462;23;19912;-72
2023/06/08 06:33:05;;;;;;;;;;;;;;;-140.72;100.00;52474.06;6253187;23;19977;-73
2023/06/08 06:35:30;;;;;;;;;;;;;;;-140.72;100.00;52502.47;6247426;23;19912;-73
2023/06/08 06:37:56;;;;;;;;;;;;;;;-140.72;100.00;52494.34;6244327;23;19991;-73
2023/06/08 06:40:22;;;;;;;;;;;;;;;-140.72;100.00;52480.16;6245335;23;19978;-73
2023/06/08 06:42:47;;;;;;;;;;;;;;;-140.72;100.00;52492.31;6244274;22;20193;-73
2023/06/08 06:45:12;;;;;;;;;;;;;;;-140.72;100.00;52498.41;6243999;23;19911;-73
2023/06/08 06:47:38;;;;;;;;;;;;;;;-140.72;100.00;52480.16;6216692;23;19912;-73
2023/06/08 06:50:03;;;;;;;;;;;;;;;-140.72;100.00;52480.16;6245319;23;20295;-73
2023/06/08 06:52:29;;;;;;;;;;;;;;;-140.72;100.00;52502.47;6244083;23;19912;-73
2023/06/08 06:54:54;;;;;;;;;;;;;;;-140.72;100.00;52455.78;6217105;23;19995;-73
2023/06/08 06:57:19;;;;;;;;;;;;;;;-140.72;100.00;52498.41;6217552;23;19939;-73
2023/06/08 06:59:46;;;;;;;;;;;;;;;-140.72;100.00;52480.16;6244016;23;19916;-72
2023/06/08 07:02:12;;;;;;;;;;;;;;;-140.72;100.00;52465.94;6244556;23;19916;-73
2023/06/08 07:04:38;;;;;;;;;;;;;;;-140.72;100.00;52427.38;6244100;23;20312;-73
2023/06/08 07:07:03;;;;;;;;;;;;;;;-140.72;100.00;52472.03;6244277;23;20040;-73
2023/06/08 07:09:29;;;;;;;;;;;;;;;-140.72;100.00;52476.09;6217218;23;19915;-73
2023/06/08 07:11:54;;;;;;;;;;;;;;;-140.72;100.00;52441.59;6243854;23;19970;-73
2023/06/08 07:14:19;;;;;;;;;;;;;;;-140.72;100.00;52427.38;6244195;23;19926;-74
2023/06/08 07:16:45;;;;;;;;;;;;;;;-140.72;100.00;52455.78;6244114;23;19911;-73
2023/06/08 07:19:10;;;;;;;;;;;;;;;-140.72;100.00;52455.78;6244305;23;19923;-71
2023/06/08 07:21:39;;;;;;;;;;;;;;;-140.72;100.00;52463.91;6217890;23;20015;-78
2023/06/08 07:24:19;;;;;;;;;;;;;;;-140.72;100.00;52429.41;6243267;23;20798;-73
2023/06/08 07:26:45;;;;;;;;;;;;;;;-140.72;100.00;52401.00;6243824;23;19916;-73
2023/06/08 07:29:15;;;;;;;;;;;;;;;-140.72;100.00;52380.72;6217092;23;20277;-73
2023/06/08 07:31:40;;;;;;;;;;;;;;;-140.72;100.00;52405.06;6217443;23;20007;-73
2023/06/08 07:34:06;;;;;;;;;;;;;;;-140.72;96.53;52382.75;6218669;23;19916;-72
2023/06/08 07:36:32;;;;;;;;;;;;;;;-140.72;39.63;52330.00;6218607;23;19920;-72
2023/06/08 07:38:57;;;;;;;;;;;;;;;-140.72;4.39;52411.16;6219020;23;19977;-73
2023/06/08 07:41:25;;;;;;;;;;;;;;;-140.72;0.00;52368.53;6245916;23;19916;-72
2023/06/08 07:43:50;;;;;;;;;;;;;;;-140.72;0.00;52417.25;6219714;23;20272;-74
2023/06/08 07:46:15;;;;;;;;;;;;;;;-140.72;0.00;52398.97;6246036;23;19918;-72
2023/06/08 07:48:40;;;;;;;;;;;;;;;-140.72;0.00;52405.06;6246101;23;19927;-74
2023/06/08 07:51:26;;;;;;;;;;;;;;;-140.72;0.00;52394.91;6245903;23;20283;-71
2023/06/08 07:53:51;;;;;;;;;;;;;;;-140.72;4.80;52398.97;6245964;23;19930;-70
2023/06/08 07:56:16;;;;;;;;;;;;;;;-140.72;0.00;52407.09;6246297;23;19911;-70
2023/06/08 07:58:41;;;;;;;;;;;;;;;-140.72;1.84;52396.94;6249944;23;19919;-75
2023/06/08 08:01:07;;;;;;;;;;;;;;;-140.72;0.00;52407.09;6247483;23;19916;-77
2023/06/08 08:03:40;;;;;;;;;;;;;;;-140.72;0.00;52413.19;6220207;23;19920;-76
2023/06/08 08:06:06;;;;;;;;;;;;;;;-140.72;0.00;52370.56;6225139;23;19915;-72
2023/06/08 08:08:33;;;;;;;;;;;;;;;-140.72;0.00;52342.16;6220133;23;19966;-72
2023/06/08 08:11:00;;;;;;;;;;;;;;;-140.72;0.00;52350.28;6247847;23;19959;-73
2023/06/08 08:13:27;;;;;;;;;;;;;;;-140.72;0.00;52390.84;6246433;23;19911;-73
2023/06/08 08:15:52;;;;;;;;;;;;;;;-140.72;0.00;52394.91;6246068;23;19915;-72
2023/06/08 08:21:25;;;;;;;;;;;;;;;-140.72;0.00;52350.28;6245415;23;19954;-73
2023/06/08 08:23:51;;;;;;;;;;;;;;;-140.72;0.00;52311.72;6245384;23;19912;-72
2023/06/08 08:26:23;;;;;;;;;;;;;;;-140.72;0.00;52311.72;6245937;23;20264;-72
2023/06/08 08:28:48;;;;;;;;;;;;;;;-140.72;0.00;52311.72;6218729;23;20204;-74
2023/06/08 08:31:14;;;;;;;;;;;;;;;-140.72;0.00;52313.75;6245460;23;19964;-73
2023/06/08 08:33:39;;;;;;;;;;;;;;;-140.72;0.00;52293.47;6219149;23;19912;-73
2023/06/08 08:36:05;;;;;;;;;;;;;;;-140.72;0.00;52291.44;6249803;23;19978;-73
2023/06/08 08:38:30;;;;;;;;;;;;;;;-140.72;0.00;52285.34;6251542;23;19911;-73
2023/06/08 08:41:01;;;;;;;;;;;;;;;-140.72;0.00;52254.91;6224726;23;20486;-73
2023/06/08 08:43:34;;;;;;;;;;;;;;;-140.72;0.00;52250.84;6247808;22;19911;-73
2023/06/08 08:46:00;;;;;;;;;;;;;;;-140.72;0.00;52297.53;6246765;23;19918;-73
2023/06/08 08:48:36;;;;;;;;;;;;;;;-140.72;0.00;52273.19;6218289;23;20415;-73
2023/06/08 08:51:01;;;;;;;;;;;;;;;-140.72;0.00;52254.91;6245429;23;19915;-73
2023/06/08 08:53:30;;;;;;;;;;;;;;;-140.72;0.00;52261.00;6245362;23;20238;-74
2023/06/08 08:55:56;;;;;;;;;;;;;;;-140.72;0.00;52293.47;6218125;23;20354;-73
2023/06/08 08:58:34;;;;;;;;;;;;;;;-140.72;0.00;52248.81;6245281;23;20005;-73
2023/06/08 09:01:11;;;;;;;;;;;;;;;-140.72;0.00;52220.41;6246034;23;19911;-72
2023/06/08 09:03:38;;;;;;;;;;;;;;;-140.72;0.00;52222.44;6245262;23;19943;-73
2023/06/08 09:06:05;;;;;;;;;;;;;;;-140.72;0.00;52208.25;6244926;23;19912;-73
2023/06/08 09:08:30;;;;;;;;;;;;;;;-140.72;0.00;52228.53;6244786;23;19961;-73
2023/06/08 09:11:14;;;;;;;;;;;;;;;-140.72;0.00;52185.94;6243847;23;20323;-73
2023/06/08 09:13:40;;;;;;;;;;;;;;;-140.72;0.00;52208.25;6218562;23;19939;-73
2023/06/08 09:16:14;;;;;;;;;;;;;;;-140.72;0.00;52232.59;6218477;23;19958;-73
2023/06/08 09:18:41;;;;;;;;;;;;;;;-140.72;0.00;52212.31;6221045;23;19974;-74
2023/06/08 09:21:26;;;;;;;;;;;;;;;-140.72;0.00;52179.84;6250984;23;19935;-73
2023/06/08 09:24:11;;;;;;;;;;;;;;;-140.72;0.00;52167.66;6246277;23;19911;-73
2023/06/08 09:26:37;;;;;;;;;;;;;;;-140.72;0.00;52173.75;6245281;23;19918;-72
2023/06/08 09:29:03;;;;;;;;;;;;;;;-140.72;0.00;52163.59;6245712;23;19919;-73
2023/06/08 09:31:31;;;;;;;;;;;;;;;-140.72;0.00;52127.09;6245221;23;19915;-73
2023/06/08 09:34:09;;;;;;;;;;;;;;;-140.72;0.00;52135.19;6245526;23;20006;-73
2023/06/08 09:36:38;;;;;;;;;;;;;;;-140.72;0.00;52171.72;6245252;23;20350;-73
2023/06/08 09:39:04;;;;;;;;;;;;;;;-140.72;0.00;52157.53;6244827;23;19923;-72
2023/06/08 09:41:30;;;;;;;;;;;;;;;-140.72;0.00;52149.41;6245252;23;19922;-73
2023/06/08 09:43:56;;;;;;;;;;;;;;;-140.72;0.00;52141.28;6245778;22;20262;-73
2023/06/08 09:46:32;;;;;;;;;;;;;;;-140.72;0.00;52135.19;6245532;23;19911;-73
2023/06/08 09:48:58;;;;;;;;;;;;;;;-140.72;0.00;52139.25;6245615;23;19919;-73
2023/06/08 09:51:30;;;;;;;;;;;;;;;-140.72;0.00;52110.84;6247511;23;19912;-73
2023/06/08 09:53:56;;;;;;;;;;;;;;;-140.72;0.00;52076.34;6248249;23;19919;-73
2023/06/08 09:56:22;;;;;;;;;;;;;;;-140.72;0.00;52106.78;6247019;23;19938;-74
2023/06/08 09:59:10;;;;;;;;;;;;;;;-140.72;0.00;52066.22;6246167;23;19912;-73
2023/06/08 10:01:43;;;;;;;;;;;;;;;-140.72;0.00;52056.06;6246066;23;19912;-73
2023/06/08 10:04:11;;;;;;;;;;;;;;;-140.72;0.00;52009.41;6217954;23;19987;-73
2023/06/08 10:06:37;;;;;;;;;;;;;;;-140.72;0.00;52021.56;6244729;23;20327;-73
2023/06/08 10:12:06;;;;;;;;;;;;;;;-140.72;0.00;51981.00;6244920;23;20298;-73
2023/06/08 10:14:31;;;;;;;;;;;;;;;-140.72;0.00;51972.88;6245249;23;19915;-73
2023/06/08 10:16:57;;;;;;;;;;;;;;;-140.72;0.00;51983.03;6244613;23;20040;-73
2023/06/08 10:22:25;;;;;;;;;;;;;;;-140.72;0.00;51938.41;6245348;23;20359;-73
2023/06/08 10:24:51;;;;;;;;;;;;;;;-140.72;0.00;51940.41;6243829;23;19911;-73
2023/06/08 10:27:22;;;;;;;;;;;;;;;-140.72;0.00;51924.19;6244965;23;19911;-74
2023/06/08 10:29:55;;;;;;;;;;;;;;;-140.72;0.00;51899.84;6244192;23;20270;-73
2023/06/08 10:32:28;;;;;;;;;;;;;;;-140.72;0.00;51946.50;6244864;23;19930;-74
2023/06/08 10:34:56;;;;;;;;;;;;;;;-140.72;0.00;51903.91;6245200;23;19915;-73
2023/06/08 10:37:26;;;;;;;;;;;;;;;-140.72;0.00;51924.19;6244798;23;19911;-73
2023/06/08 10:39:52;;;;;;;;;;;;;;;-140.72;0.00;51897.81;6244111;23;19922;-74
2023/06/08 10:42:18;;;;;;;;;;;;;;;-140.72;0.00;51920.13;6244416;23;19912;-73
2023/06/08 10:47:47;;;;;;;;;;;;;;;-140.72;0.00;51901.88;6244555;23;19915;-73
2023/06/08 10:50:17;;;;;;;;;;;;;;;-140.72;0.00;51958.69;6246465;23;20002;-73
2023/06/08 10:55:49;;;;;;;;;;;;;;;-140.72;0.00;51901.88;6244644;23;19929;-74
2023/06/08 10:58:19;;;;;;;;;;;;;;;-140.72;0.00;51881.59;6217392;23;20337;-74
2023/06/08 11:00:48;;;;;;;;;;;;;;;-140.72;0.00;51891.72;6216655;23;20161;-73
2023/06/08 11:03:16;;;;;;;;;;;;;;;-140.72;0.00;51826.81;6216145;23;20255;-73
2023/06/08 11:05:43;;;;;;;;;;;;;;;-140.72;0.00;51875.50;6242939;23;19998;-72
2023/06/08 11:08:09;;;;;;;;;;;;;;;-140.72;0.00;51822.75;6216504;23;19919;-72
2023/06/08 11:10:34;;;;;;;;;;;;;;;-140.72;0.00;51863.31;6243993;23;19911;-72
2023/06/08 11:13:17;;;;;;;;;;;;;;;-140.72;0.00;51867.38;6217318;23;19911;-72
2023/06/08 11:15:43;;;;;;;;;;;;;;;-140.72;0.00;51836.94;6243632;23;19978;-72
2023/06/08 11:18:09;;;;;;;;;;;;;;;-140.72;0.00;51830.88;6244132;23;20259;-72
2023/06/08 11:20:37;;;;;;;;;;;;;;;-140.72;0.00;51812.59;6243809;23;19916;-72
2023/06/08 11:23:05;;;;;;;;;;;;;;;-140.72;0.00;51780.16;6244633;23;19915;-73
2023/06/08 11:25:30;;;;;;;;;;;;;;;-140.72;0.00;51802.47;6243576;23;19977;-72
2023/06/08 11:27:57;;;;;;;;;;;;;;;-140.72;0.00;51816.66;6244043;23;19912;-72
2023/06/08 11:30:25;;;;;;;;;;;;;;;-140.72;0.00;51838.97;6243905;23;20342;-73
2023/06/08 11:32:50;;;;;;;;;;;;;;;-140.72;0.00;51770.00;6243587;23;19915;-72
2023/06/08 11:35:20;;;;;;;;;;;;;;;-140.72;0.00;51776.09;6244368;23;19916;-72
2023/06/08 11:37:48;;;;;;;;;;;;;;;-140.72;0.00;51735.50;6249860;23;20322;-72
2023/06/08 11:40:14;;;;;;;;;;;;;;;-140.72;0.00;51743.63;6251571;23;19918;-72
2023/06/08 11:42:43;;;;;;;;;;;;;;;-140.72;0.00;51749.72;6245514;23;19911;-72
2023/06/08 11:45:09;;;;;;;;;;;;;;;-140.72;0.00;51709.13;6217350;23;19943;-72
2023/06/08 11:47:35;;;;;;;;;;;;;;;-140.72;0.00;51670.59;6218298;23;19955;-72
2023/06/08 11:50:01;;;;;;;;;;;;;;;-140.72;0.00;51741.59;6244415;23;19934;-72
2023/06/08 11:52:27;;;;;;;;;;;;;;;-140.72;0.00;51711.16;6244253;23;19912;-72
2023/06/08 11:54:53;;;;;;;;;;;;;;;-140.72;0.00;51699.00;6217039;23;19961;-72
2023/06/08 11:57:19;;;;;;;;;;;;;;;-140.72;0.00;51656.38;6244458;23;19928;-72
2023/06/08 11:59:45;;;;;;;;;;;;;;;-140.72;0.00;51656.38;6243743;23;20328;-72
2023/06/08 12:02:11;;;;;;;;;;;;;;;-140.72;0.00;51692.91;6217091;23;19912;-72
2023/06/08 12:04:36;;;;;;;;;;;;;;;-140.72;0.00;51688.84;6244311;23;19935;-73
2023/06/08 12:07:11;;;;;;;;;;;;;;;-140.72;0.00;51674.66;6244405;23;19970;-72
2023/06/08 12:09:37;;;;;;;;;;;;;;;-140.72;0.00;51668.56;6245894;23;19912;-72
2023/06/08 12:12:10;;;;;;;;;;;;;;;-140.72;0.00;51676.69;6243712;23;20319;-72
2023/06/08 12:14:36;;;;;;;;;;;;;;;-140.72;0.00;51640.16;6245859;23;19911;-72
2023/06/08 12:17:04;;;;;;;;;;;;;;;-140.72;0.00;51672.63;6244948;23;20422;-72
2023/06/08 12:19:31;;;;;;;;;;;;;;;-140.72;0.00;51605.66;6245810;23;19912;-72
2023/06/08 12:21:56;;;;;;;;;;;;;;;-140.72;0.00;51632.03;6218623;23;19911;-72
2023/06/08 12:24:22;;;;;;;;;;;;;;;-140.72;0.00;51575.25;6245440;23;20356;-72
2023/06/08 12:26:47;;;;;;;;;;;;;;;-140.72;0.00;51597.56;6218051;23;19918;-71
2023/06/08 12:29:28;;;;;;;;;;;;;;;-140.72;0.00;51670.59;6245494;23;20003;-71
2023/06/08 12:31:53;;;;;;;;;;;;;;;-140.72;0.00;51599.59;6244978;23;19931;-72
2023/06/08 12:34:19;;;;;;;;;;;;;;;-140.72;0.00;51601.63;6219048;23;19918;-71
2023/06/08 12:36:44;;;;;;;;;;;;;;;-140.72;0.00;51615.81;6245807;23;19994;-72
2023/06/08 12:39:46;;;;;;;;;;;;;;;-140.72;0.00;51623.94;6218920;23;19916;-71
2023/06/08 12:42:11;;;;;;;;;;;;;;;-140.72;0.00;51656.38;6246138;23;20251;-72